sensor_id;sensor_type;location;lat;lon;timestamp;P1;durP1;ratioP1;P2;durP2;ratioP2
21168;SDS011;10742;51.816;8.662;2023-07-29T00:00:09;1999.90;;;999.90;;
21168;SDS011;10742;51.816;8.662;2023-07-29T00:03:15;1999.90;;;999.90;;
21168;SDS011;10742;51.816;8.662;2023-07-29T00:06:18;1999.90;;;999.90;;
21168;SDS011;10742;51.816;8.662;2023-07-29T00:09:20;1999.90;;;999.90;;
21168;SDS011;10742;51.816;8.662;2023-07-29T00:12:23;1999.90;;;999.90;;
21168;SDS011;10742;51.816;8.662;2023-07-29T00:15:26;1999.90;;;997.22;;
21168;SDS011;10742;51.816;8.662;2023-07-29T00:18:28;1999.90;;;999.90;;
21168;SDS011;10742;51.816;8.662;2023-07-29T00:21:31;1999.90;;;999.90;;
21168;SDS011;10742;51.816;8.662;2023-07-29T00:24:34;1999.90;;;999.90;;
21168;SDS011;10742;51.816;8.662;2023-07-29T00:27:37;1999.90;;;999.90;;
21168;SDS011;10742;51.816;8.662;2023-07-29T00:30:39;1999.90;;;999.90;;
21168;SDS011;10742;51.816;8.662;2023-07-29T00:33:42;1999.90;;;999.90;;
21168;SDS011;10742;51.816;8.662;2023-07-29T00:36:45;1999.90;;;999.90;;
21168;SDS011;10742;51.816;8.662;2023-07-29T00:39:48;1999.90;;;999.90;;
21168;SDS011;10742;51.816;8.662;2023-07-29T00:42:50;1999.90;;;999.90;;
21168;SDS011;10742;51.816;8.662;2023-07-29T00:45:53;1999.90;;;999.90;;
21168;SDS011;10742;51.816;8.662;2023-07-29T00:48:56;1999.90;;;999.90;;
21168;SDS011;10742;51.816;8.662;2023-07-29T00:51:58;1999.90;;;999.90;;
21168;SDS011;10742;51.816;8.662;2023-07-29T00:55:01;1999.90;;;999.90;;
21168;SDS011;10742;51.816;8.662;2023-07-29T00:58:04;1999.90;;;999.90;;
21168;SDS011;10742;51.816;8.662;2023-07-29T01:01:07;1999.90;;;999.90;;
21168;SDS011;10742;51.816;8.662;2023-07-29T01:04:10;1999.90;;;999.90;;
21168;SDS011;10742;51.816;8.662;2023-07-29T01:10:36;1999.90;;;999.90;;
21168;SDS011;10742;51.816;8.662;2023-07-29T01:14:34;1999.90;;;999.90;;
21168;SDS011;10742;51.816;8.662;2023-07-29T01:17:13;1999.90;;;999.90;;
21168;SDS011;10742;51.816;8.662;2023-07-29T01:20:21;1999.90;;;999.90;;
21168;SDS011;10742;51.816;8.662;2023-07-29T01:23:30;1999.90;;;999.90;;
21168;SDS011;10742;51.816;8.662;2023-07-29T01:26:34;1999.90;;;999.90;;
21168;SDS011;10742;51.816;8.662;2023-07-29T01:29:37;1999.90;;;999.90;;
21168;SDS011;10742;51.816;8.662;2023-07-29T01:32:46;1999.90;;;999.90;;
21168;SDS011;10742;51.816;8.662;2023-07-29T01:36:02;1999.90;;;999.90;;
21168;SDS011;10742;51.816;8.662;2023-07-29T01:39:10;1999.90;;;999.90;;
21168;SDS011;10742;51.816;8.662;2023-07-29T01:42:14;1999.90;;;999.90;;
21168;SDS011;10742;51.816;8.662;2023-07-29T01:45:17;1999.90;;;999.90;;
21168;SDS011;10742;51.816;8.662;2023-07-29T01:48:20;1999.90;;;999.90;;
21168;SDS011;10742;51.816;8.662;2023-07-29T01:51:24;1999.90;;;999.90;;
21168;SDS011;10742;51.816;8.662;2023-07-29T01:54:27;1999.90;;;999.90;;
21168;SDS011;10742;51.816;8.662;2023-07-29T01:57:29;1999.90;;;999.90;;
21168;SDS011;10742;51.816;8.662;2023-07-29T02:00:32;1999.90;;;999.90;;
21168;SDS011;10742;51.816;8.662;2023-07-29T02:03:35;1999.90;;;999.90;;
21168;SDS011;10742;51.816;8.662;2023-07-29T02:06:37;1999.90;;;999.90;;
21168;SDS011;10742;51.816;8.662;2023-07-29T02:09:40;1999.90;;;999.90;;
21168;SDS011;10742;51.816;8.662;2023-07-29T02:12:43;1999.90;;;999.90;;
21168;SDS011;10742;51.816;8.662;2023-07-29T02:15:45;1999.90;;;999.90;;
21168;SDS011;10742;51.816;8.662;2023-07-29T02:18:48;1999.90;;;999.90;;
21168;SDS011;10742;51.816;8.662;2023-07-29T02:21:52;1999.90;;;999.90;;
21168;SDS011;10742;51.816;8.662;2023-07-29T02:24:55;1999.90;;;999.90;;
21168;SDS011;10742;51.816;8.662;2023-07-29T02:27:57;1999.90;;;999.90;;
21168;SDS011;10742;51.816;8.662;2023-07-29T02:31:16;1999.90;;;999.90;;
21168;SDS011;10742;51.816;8.662;2023-07-29T02:34:22;1999.90;;;999.90;;
21168;SDS011;10742;51.816;8.662;2023-07-29T02:37:25;1999.90;;;999.90;;
21168;SDS011;10742;51.816;8.662;2023-07-29T02:40:28;1999.90;;;999.90;;
21168;SDS011;10742;51.816;8.662;2023-07-29T02:43:31;1999.90;;;999.90;;
21168;SDS011;10742;51.816;8.662;2023-07-29T02:46:33;1999.90;;;999.90;;
21168;SDS011;10742;51.816;8.662;2023-07-29T02:49:36;1999.90;;;999.90;;
21168;SDS011;10742;51.816;8.662;2023-07-29T02:52:39;1999.90;;;999.90;;
21168;SDS011;10742;51.816;8.662;2023-07-29T02:55:41;1999.90;;;999.90;;
21168;SDS011;10742;51.816;8.662;2023-07-29T02:58:44;1999.90;;;999.90;;
21168;SDS011;10742;51.816;8.662;2023-07-29T03:01:46;1999.90;;;999.90;;
21168;SDS011;10742;51.816;8.662;2023-07-29T03:04:49;1999.90;;;999.90;;
21168;SDS011;10742;51.816;8.662;2023-07-29T03:07:52;1999.90;;;999.90;;
21168;SDS011;10742;51.816;8.662;2023-07-29T03:10:55;1999.90;;;999.90;;
21168;SDS011;10742;51.816;8.662;2023-07-29T03:13:58;1999.90;;;999.90;;
21168;SDS011;10742;51.816;8.662;2023-07-29T03:17:04;1999.90;;;999.90;;
21168;SDS011;10742;51.816;8.662;2023-07-29T03:20:07;1999.90;;;999.90;;
21168;SDS011;10742;51.816;8.662;2023-07-29T03:23:10;1999.90;;;999.90;;
21168;SDS011;10742;51.816;8.662;2023-07-29T03:26:13;1999.90;;;999.90;;
21168;SDS011;10742;51.816;8.662;2023-07-29T03:29:16;1999.90;;;999.90;;
21168;SDS011;10742;51.816;8.662;2023-07-29T03:32:19;1999.90;;;999.90;;
21168;SDS011;10742;51.816;8.662;2023-07-29T03:35:21;1999.90;;;999.90;;
21168;SDS011;10742;51.816;8.662;2023-07-29T03:38:24;1999.90;;;999.90;;
21168;SDS011;10742;51.816;8.662;2023-07-29T03:41:26;1999.90;;;999.90;;
21168;SDS011;10742;51.816;8.662;2023-07-29T03:44:29;1999.90;;;999.90;;
21168;SDS011;10742;51.816;8.662;2023-07-29T03:47:33;1999.90;;;999.90;;
21168;SDS011;10742;51.816;8.662;2023-07-29T03:50:35;1999.90;;;999.90;;
21168;SDS011;10742;51.816;8.662;2023-07-29T03:53:38;1999.90;;;999.90;;
21168;SDS011;10742;51.816;8.662;2023-07-29T03:56:41;1999.90;;;999.90;;
21168;SDS011;10742;51.816;8.662;2023-07-29T03:59:44;1999.90;;;999.90;;
21168;SDS011;10742;51.816;8.662;2023-07-29T04:02:46;1999.90;;;999.90;;
21168;SDS011;10742;51.816;8.662;2023-07-29T04:05:49;1999.90;;;999.90;;
21168;SDS011;10742;51.816;8.662;2023-07-29T04:08:51;1999.90;;;999.90;;
21168;SDS011;10742;51.816;8.662;2023-07-29T04:11:54;1999.90;;;999.90;;
21168;SDS011;10742;51.816;8.662;2023-07-29T04:14:57;1999.90;;;999.90;;
21168;SDS011;10742;51.816;8.662;2023-07-29T04:18:00;1999.90;;;999.90;;
21168;SDS011;10742;51.816;8.662;2023-07-29T04:21:02;1999.90;;;999.90;;
21168;SDS011;10742;51.816;8.662;2023-07-29T04:24:05;1999.90;;;999.90;;
21168;SDS011;10742;51.816;8.662;2023-07-29T04:27:07;1999.90;;;999.90;;
21168;SDS011;10742;51.816;8.662;2023-07-29T04:30:10;1999.90;;;999.90;;
21168;SDS011;10742;51.816;8.662;2023-07-29T04:33:13;1999.90;;;999.90;;
21168;SDS011;10742;51.816;8.662;2023-07-29T04:36:15;1999.90;;;999.90;;
21168;SDS011;10742;51.816;8.662;2023-07-29T04:39:19;1999.90;;;999.90;;
21168;SDS011;10742;51.816;8.662;2023-07-29T04:42:22;1999.90;;;999.90;;
21168;SDS011;10742;51.816;8.662;2023-07-29T04:45:27;1999.90;;;999.90;;
21168;SDS011;10742;51.816;8.662;2023-07-29T04:48:31;1999.90;;;999.90;;
21168;SDS011;10742;51.816;8.662;2023-07-29T04:51:33;1999.90;;;999.90;;
21168;SDS011;10742;51.816;8.662;2023-07-29T04:54:36;1999.90;;;999.90;;
21168;SDS011;10742;51.816;8.662;2023-07-29T04:57:39;1999.90;;;999.90;;
21168;SDS011;10742;51.816;8.662;2023-07-29T05:00:41;1999.90;;;999.90;;
21168;SDS011;10742;51.816;8.662;2023-07-29T05:03:44;1999.90;;;999.90;;
21168;SDS011;10742;51.816;8.662;2023-07-29T05:06:47;1999.90;;;999.90;;
21168;SDS011;10742;51.816;8.662;2023-07-29T05:09:50;1999.90;;;999.90;;
21168;SDS011;10742;51.816;8.662;2023-07-29T05:12:52;1999.90;;;999.90;;
21168;SDS011;10742;51.816;8.662;2023-07-29T05:15:55;1999.90;;;999.90;;
21168;SDS011;10742;51.816;8.662;2023-07-29T05:18:58;1999.90;;;999.90;;
21168;SDS011;10742;51.816;8.662;2023-07-29T05:22:00;1999.90;;;999.90;;
21168;SDS011;10742;51.816;8.662;2023-07-29T05:25:03;1999.90;;;999.90;;
21168;SDS011;10742;51.816;8.662;2023-07-29T05:28:05;1999.90;;;999.90;;
21168;SDS011;10742;51.816;8.662;2023-07-29T05:31:08;1999.90;;;999.90;;
21168;SDS011;10742;51.816;8.662;2023-07-29T05:34:11;1999.90;;;999.90;;
21168;SDS011;10742;51.816;8.662;2023-07-29T05:37:14;1999.90;;;999.90;;
21168;SDS011;10742;51.816;8.662;2023-07-29T05:40:16;1999.90;;;999.90;;
21168;SDS011;10742;51.816;8.662;2023-07-29T05:43:19;1999.90;;;999.90;;
21168;SDS011;10742;51.816;8.662;2023-07-29T05:46:21;1999.90;;;999.90;;
21168;SDS011;10742;51.816;8.662;2023-07-29T05:49:24;1999.90;;;999.90;;
21168;SDS011;10742;51.816;8.662;2023-07-29T05:52:27;1999.90;;;999.90;;
21168;SDS011;10742;51.816;8.662;2023-07-29T05:55:29;1999.90;;;999.90;;
21168;SDS011;10742;51.816;8.662;2023-07-29T05:58:32;1999.90;;;999.90;;
21168;SDS011;10742;51.816;8.662;2023-07-29T06:01:34;1999.90;;;999.90;;
21168;SDS011;10742;51.816;8.662;2023-07-29T06:04:37;1999.90;;;999.90;;
21168;SDS011;10742;51.816;8.662;2023-07-29T06:07:58;1999.90;;;999.90;;
21168;SDS011;10742;51.816;8.662;2023-07-29T06:11:20;1999.90;;;999.90;;
21168;SDS011;10742;51.816;8.662;2023-07-29T06:14:41;1999.90;;;999.90;;
21168;SDS011;10742;51.816;8.662;2023-07-29T06:18:03;1999.90;;;999.90;;
21168;SDS011;10742;51.816;8.662;2023-07-29T06:21:05;1999.90;;;999.90;;
21168;SDS011;10742;51.816;8.662;2023-07-29T06:24:10;1999.90;;;999.90;;
21168;SDS011;10742;51.816;8.662;2023-07-29T06:27:12;1999.90;;;999.90;;
21168;SDS011;10742;51.816;8.662;2023-07-29T06:30:15;1999.90;;;999.90;;
21168;SDS011;10742;51.816;8.662;2023-07-29T06:33:18;1999.90;;;999.90;;
21168;SDS011;10742;51.816;8.662;2023-07-29T06:36:20;1999.90;;;999.90;;
21168;SDS011;10742;51.816;8.662;2023-07-29T06:39:23;1999.90;;;999.90;;
21168;SDS011;10742;51.816;8.662;2023-07-29T06:42:26;1999.90;;;999.90;;
21168;SDS011;10742;51.816;8.662;2023-07-29T06:45:28;1999.90;;;999.90;;
21168;SDS011;10742;51.816;8.662;2023-07-29T06:48:31;1999.90;;;999.90;;
21168;SDS011;10742;51.816;8.662;2023-07-29T06:51:33;1999.90;;;999.90;;
21168;SDS011;10742;51.816;8.662;2023-07-29T06:54:37;1999.90;;;999.90;;
21168;SDS011;10742;51.816;8.662;2023-07-29T06:57:39;1999.90;;;999.90;;
21168;SDS011;10742;51.816;8.662;2023-07-29T07:00:42;1999.90;;;999.90;;
21168;SDS011;10742;51.816;8.662;2023-07-29T07:03:45;1999.90;;;999.90;;
21168;SDS011;10742;51.816;8.662;2023-07-29T07:06:47;1999.90;;;999.90;;
21168;SDS011;10742;51.816;8.662;2023-07-29T07:09:50;1999.90;;;999.90;;
21168;SDS011;10742;51.816;8.662;2023-07-29T07:12:52;1999.90;;;999.90;;
21168;SDS011;10742;51.816;8.662;2023-07-29T07:15:55;1999.90;;;999.90;;
21168;SDS011;10742;51.816;8.662;2023-07-29T07:18:58;1999.90;;;999.90;;
21168;SDS011;10742;51.816;8.662;2023-07-29T07:22:01;1999.90;;;999.90;;
21168;SDS011;10742;51.816;8.662;2023-07-29T07:25:04;1999.90;;;999.90;;
21168;SDS011;10742;51.816;8.662;2023-07-29T07:28:08;1999.90;;;999.90;;
21168;SDS011;10742;51.816;8.662;2023-07-29T07:31:11;1999.90;;;999.90;;
21168;SDS011;10742;51.816;8.662;2023-07-29T07:34:32;1999.90;;;999.90;;
21168;SDS011;10742;51.816;8.662;2023-07-29T07:37:53;1999.90;;;999.90;;
21168;SDS011;10742;51.816;8.662;2023-07-29T07:41:15;1999.90;;;999.90;;
21168;SDS011;10742;51.816;8.662;2023-07-29T07:44:36;1999.90;;;999.90;;
21168;SDS011;10742;51.816;8.662;2023-07-29T07:47:58;1999.90;;;999.90;;
21168;SDS011;10742;51.816;8.662;2023-07-29T07:51:20;1999.90;;;999.90;;
21168;SDS011;10742;51.816;8.662;2023-07-29T07:54:41;1999.90;;;999.90;;
21168;SDS011;10742;51.816;8.662;2023-07-29T07:58:03;1999.90;;;999.90;;
21168;SDS011;10742;51.816;8.662;2023-07-29T08:01:25;1999.90;;;999.90;;
21168;SDS011;10742;51.816;8.662;2023-07-29T08:04:47;1999.90;;;999.90;;
21168;SDS011;10742;51.816;8.662;2023-07-29T08:08:08;1999.90;;;999.90;;
21168;SDS011;10742;51.816;8.662;2023-07-29T08:11:30;1999.90;;;999.90;;
21168;SDS011;10742;51.816;8.662;2023-07-29T08:14:52;1999.90;;;999.90;;
21168;SDS011;10742;51.816;8.662;2023-07-29T08:17:54;1999.90;;;999.90;;
21168;SDS011;10742;51.816;8.662;2023-07-29T08:20:58;1999.90;;;999.90;;
21168;SDS011;10742;51.816;8.662;2023-07-29T08:24:04;1999.90;;;999.90;;
21168;SDS011;10742;51.816;8.662;2023-07-29T08:27:09;1999.90;;;999.90;;
21168;SDS011;10742;51.816;8.662;2023-07-29T08:30:11;1999.90;;;999.90;;
21168;SDS011;10742;51.816;8.662;2023-07-29T08:33:14;1999.90;;;999.90;;
21168;SDS011;10742;51.816;8.662;2023-07-29T08:36:17;1999.90;;;999.90;;
21168;SDS011;10742;51.816;8.662;2023-07-29T08:39:20;1999.90;;;999.90;;
21168;SDS011;10742;51.816;8.662;2023-07-29T08:42:23;1999.90;;;999.90;;
21168;SDS011;10742;51.816;8.662;2023-07-29T08:45:32;1999.90;;;999.90;;
21168;SDS011;10742;51.816;8.662;2023-07-29T08:48:41;1999.90;;;999.90;;
21168;SDS011;10742;51.816;8.662;2023-07-29T08:51:48;1999.90;;;999.90;;
21168;SDS011;10742;51.816;8.662;2023-07-29T08:54:51;1999.90;;;999.90;;
21168;SDS011;10742;51.816;8.662;2023-07-29T08:57:54;1999.90;;;999.90;;
21168;SDS011;10742;51.816;8.662;2023-07-29T09:00:58;1999.90;;;999.90;;
21168;SDS011;10742;51.816;8.662;2023-07-29T09:04:00;1999.90;;;977.63;;
21168;SDS011;10742;51.816;8.662;2023-07-29T09:07:03;1999.90;;;722.30;;
21168;SDS011;10742;51.816;8.662;2023-07-29T09:10:08;1999.90;;;659.65;;
21168;SDS011;10742;51.816;8.662;2023-07-29T09:13:12;1786.05;;;440.55;;
21168;SDS011;10742;51.816;8.662;2023-07-29T09:16:15;792.45;;;234.32;;
21168;SDS011;10742;51.816;8.662;2023-07-29T09:19:18;318.45;;;101.68;;
21168;SDS011;10742;51.816;8.662;2023-07-29T09:22:21;381.02;;;122.65;;
21168;SDS011;10742;51.816;8.662;2023-07-29T09:25:24;277.05;;;81.65;;
21168;SDS011;10742;51.816;8.662;2023-07-29T09:28:36;55.92;;;28.45;;
21168;SDS011;10742;51.816;8.662;2023-07-29T09:31:40;30.08;;;16.65;;
21168;SDS011;10742;51.816;8.662;2023-07-29T09:34:43;6.57;;;4.45;;
21168;SDS011;10742;51.816;8.662;2023-07-29T09:37:46;2.90;;;2.50;;
21168;SDS011;10742;51.816;8.662;2023-07-29T09:40:49;3.53;;;2.55;;
21168;SDS011;10742;51.816;8.662;2023-07-29T09:43:56;2.33;;;2.20;;
21168;SDS011;10742;51.816;8.662;2023-07-29T09:47:00;2.58;;;2.30;;
21168;SDS011;10742;51.816;8.662;2023-07-29T09:50:02;2.40;;;2.20;;
21168;SDS011;10742;51.816;8.662;2023-07-29T09:53:05;4.65;;;2.15;;
21168;SDS011;10742;51.816;8.662;2023-07-29T09:56:09;2.25;;;2.05;;
21168;SDS011;10742;51.816;8.662;2023-07-29T09:59:12;1.83;;;1.73;;
21168;SDS011;10742;51.816;8.662;2023-07-29T10:02:15;3.10;;;2.10;;
21168;SDS011;10742;51.816;8.662;2023-07-29T10:05:20;3.05;;;1.90;;
21168;SDS011;10742;51.816;8.662;2023-07-29T10:08:25;2.22;;;2.05;;
21168;SDS011;10742;51.816;8.662;2023-07-29T10:11:32;2.55;;;1.58;;
21168;SDS011;10742;51.816;8.662;2023-07-29T10:14:36;2.17;;;1.60;;
21168;SDS011;10742;51.816;8.662;2023-07-29T10:17:40;1.65;;;1.55;;
21168;SDS011;10742;51.816;8.662;2023-07-29T10:20:43;2.22;;;1.88;;
21168;SDS011;10742;51.816;8.662;2023-07-29T10:23:46;1.80;;;1.70;;
21168;SDS011;10742;51.816;8.662;2023-07-29T10:26:51;1.95;;;1.83;;
21168;SDS011;10742;51.816;8.662;2023-07-29T10:29:55;3.42;;;2.20;;
21168;SDS011;10742;51.816;8.662;2023-07-29T10:32:58;4.93;;;1.90;;
21168;SDS011;10742;51.816;8.662;2023-07-29T10:36:05;2.20;;;1.70;;
21168;SDS011;10742;51.816;8.662;2023-07-29T10:39:08;3.40;;;1.52;;
21168;SDS011;10742;51.816;8.662;2023-07-29T10:42:12;1.77;;;1.67;;
21168;SDS011;10742;51.816;8.662;2023-07-29T10:45:21;2.03;;;1.42;;
21168;SDS011;10742;51.816;8.662;2023-07-29T10:51:37;1.85;;;1.60;;
21168;SDS011;10742;51.816;8.662;2023-07-29T10:57:49;2.85;;;1.40;;
21168;SDS011;10742;51.816;8.662;2023-07-29T11:00:52;1.70;;;1.40;;
21168;SDS011;10742;51.816;8.662;2023-07-29T11:04:01;1.92;;;1.50;;
21168;SDS011;10742;51.816;8.662;2023-07-29T11:07:23;2.25;;;1.38;;
21168;SDS011;10742;51.816;8.662;2023-07-29T11:10:29;1.40;;;1.30;;
21168;SDS011;10742;51.816;8.662;2023-07-29T11:13:46;1.52;;;1.10;;
21168;SDS011;10742;51.816;8.662;2023-07-29T11:16:49;1.80;;;1.70;;
21168;SDS011;10742;51.816;8.662;2023-07-29T11:19:52;2.75;;;1.50;;
21168;SDS011;10742;51.816;8.662;2023-07-29T11:22:57;1.48;;;1.38;;
21168;SDS011;10742;51.816;8.662;2023-07-29T11:26:02;1.83;;;1.70;;
21168;SDS011;10742;51.816;8.662;2023-07-29T11:29:05;1.65;;;1.55;;
21168;SDS011;10742;51.816;8.662;2023-07-29T11:32:09;2.22;;;1.65;;
21168;SDS011;10742;51.816;8.662;2023-07-29T11:35:12;2.38;;;1.50;;
21168;SDS011;10742;51.816;8.662;2023-07-29T11:38:17;2.33;;;1.50;;
21168;SDS011;10742;51.816;8.662;2023-07-29T11:41:21;2.72;;;1.23;;
21168;SDS011;10742;51.816;8.662;2023-07-29T11:44:27;1.60;;;1.50;;
21168;SDS011;10742;51.816;8.662;2023-07-29T11:47:30;2.20;;;1.50;;
21168;SDS011;10742;51.816;8.662;2023-07-29T11:50:34;1.92;;;1.63;;
21168;SDS011;10742;51.816;8.662;2023-07-29T11:53:37;1.50;;;1.40;;
21168;SDS011;10742;51.816;8.662;2023-07-29T11:56:39;1.70;;;1.60;;
21168;SDS011;10742;51.816;8.662;2023-07-29T11:59:43;1.73;;;1.60;;
21168;SDS011;10742;51.816;8.662;2023-07-29T12:02:45;1.63;;;1.50;;
21168;SDS011;10742;51.816;8.662;2023-07-29T12:05:51;1.50;;;1.40;;
21168;SDS011;10742;51.816;8.662;2023-07-29T12:08:53;1.98;;;1.52;;
21168;SDS011;10742;51.816;8.662;2023-07-29T12:11:56;1.60;;;1.50;;
21168;SDS011;10742;51.816;8.662;2023-07-29T12:14:59;2.13;;;1.60;;
21168;SDS011;10742;51.816;8.662;2023-07-29T12:18:02;1.40;;;1.30;;
21168;SDS011;10742;51.816;8.662;2023-07-29T12:21:06;1.65;;;1.55;;
21168;SDS011;10742;51.816;8.662;2023-07-29T12:24:09;1.63;;;1.52;;
21168;SDS011;10742;51.816;8.662;2023-07-29T12:27:12;1.75;;;1.60;;
21168;SDS011;10742;51.816;8.662;2023-07-29T12:30:16;3.15;;;1.60;;
21168;SDS011;10742;51.816;8.662;2023-07-29T12:33:37;2.00;;;1.80;;
21168;SDS011;10742;51.816;8.662;2023-07-29T12:36:48;2.92;;;1.80;;
21168;SDS011;10742;51.816;8.662;2023-07-29T12:39:51;1.88;;;1.73;;
21168;SDS011;10742;51.816;8.662;2023-07-29T12:42:54;3.83;;;1.92;;
21168;SDS011;10742;51.816;8.662;2023-07-29T12:45:59;1.95;;;1.73;;
21168;SDS011;10742;51.816;8.662;2023-07-29T12:49:01;2.42;;;1.90;;
21168;SDS011;10742;51.816;8.662;2023-07-29T12:52:04;2.35;;;1.88;;
21168;SDS011;10742;51.816;8.662;2023-07-29T12:55:07;2.20;;;1.65;;
21168;SDS011;10742;51.816;8.662;2023-07-29T12:58:10;1.77;;;1.65;;
21168;SDS011;10742;51.816;8.662;2023-07-29T13:01:14;3.00;;;2.17;;
21168;SDS011;10742;51.816;8.662;2023-07-29T13:04:20;1.80;;;1.70;;
21168;SDS011;10742;51.816;8.662;2023-07-29T13:07:22;4.45;;;1.73;;
21168;SDS011;10742;51.816;8.662;2023-07-29T13:10:25;2.05;;;1.88;;
21168;SDS011;10742;51.816;8.662;2023-07-29T13:13:28;2.28;;;2.03;;
21168;SDS011;10742;51.816;8.662;2023-07-29T13:16:30;4.60;;;1.77;;
21168;SDS011;10742;51.816;8.662;2023-07-29T13:19:33;2.33;;;1.80;;
21168;SDS011;10742;51.816;8.662;2023-07-29T13:22:35;2.35;;;1.80;;
21168;SDS011;10742;51.816;8.662;2023-07-29T13:25:38;4.80;;;1.95;;
21168;SDS011;10742;51.816;8.662;2023-07-29T13:28:41;2.15;;;1.70;;
21168;SDS011;10742;51.816;8.662;2023-07-29T13:31:43;3.03;;;1.98;;
21168;SDS011;10742;51.816;8.662;2023-07-29T13:34:46;1.95;;;1.80;;
21168;SDS011;10742;51.816;8.662;2023-07-29T13:37:48;3.42;;;1.92;;
21168;SDS011;10742;51.816;8.662;2023-07-29T13:40:51;2.65;;;1.70;;
21168;SDS011;10742;51.816;8.662;2023-07-29T13:43:53;2.72;;;1.95;;
21168;SDS011;10742;51.816;8.662;2023-07-29T13:46:56;2.38;;;2.17;;
21168;SDS011;10742;51.816;8.662;2023-07-29T13:49:59;2.35;;;1.95;;
21168;SDS011;10742;51.816;8.662;2023-07-29T13:53:01;2.40;;;1.92;;
21168;SDS011;10742;51.816;8.662;2023-07-29T13:56:04;2.33;;;1.90;;
21168;SDS011;10742;51.816;8.662;2023-07-29T13:59:07;4.05;;;2.10;;
21168;SDS011;10742;51.816;8.662;2023-07-29T14:02:10;5.70;;;3.03;;
21168;SDS011;10742;51.816;8.662;2023-07-29T14:05:12;8.63;;;3.03;;
21168;SDS011;10742;51.816;8.662;2023-07-29T14:08:16;2.50;;;2.30;;
21168;SDS011;10742;51.816;8.662;2023-07-29T14:11:18;3.15;;;2.65;;
21168;SDS011;10742;51.816;8.662;2023-07-29T14:14:21;2.97;;;2.63;;
21168;SDS011;10742;51.816;8.662;2023-07-29T14:17:23;4.35;;;2.65;;
21168;SDS011;10742;51.816;8.662;2023-07-29T14:20:26;5.68;;;2.55;;
21168;SDS011;10742;51.816;8.662;2023-07-29T14:23:28;7.22;;;2.70;;
21168;SDS011;10742;51.816;8.662;2023-07-29T14:26:32;3.50;;;2.67;;
21168;SDS011;10742;51.816;8.662;2023-07-29T14:29:34;3.55;;;2.75;;
21168;SDS011;10742;51.816;8.662;2023-07-29T14:32:37;3.25;;;2.90;;
21168;SDS011;10742;51.816;8.662;2023-07-29T14:35:39;3.65;;;3.10;;
21168;SDS011;10742;51.816;8.662;2023-07-29T14:38:42;3.53;;;3.20;;
21168;SDS011;10742;51.816;8.662;2023-07-29T14:41:44;4.15;;;3.40;;
21168;SDS011;10742;51.816;8.662;2023-07-29T14:44:47;5.05;;;4.55;;
21168;SDS011;10742;51.816;8.662;2023-07-29T14:47:49;5.25;;;4.75;;
21168;SDS011;10742;51.816;8.662;2023-07-29T14:50:54;4.15;;;3.38;;
21168;SDS011;10742;51.816;8.662;2023-07-29T14:53:57;4.03;;;3.65;;
21168;SDS011;10742;51.816;8.662;2023-07-29T14:57:00;5.18;;;4.55;;
21168;SDS011;10742;51.816;8.662;2023-07-29T15:00:03;5.72;;;4.43;;
21168;SDS011;10742;51.816;8.662;2023-07-29T15:03:06;8.10;;;5.63;;
21168;SDS011;10742;51.816;8.662;2023-07-29T15:06:09;5.60;;;4.85;;
21168;SDS011;10742;51.816;8.662;2023-07-29T15:09:12;8.60;;;6.75;;
21168;SDS011;10742;51.816;8.662;2023-07-29T15:12:14;10.63;;;7.82;;
21168;SDS011;10742;51.816;8.662;2023-07-29T15:15:17;13.27;;;7.35;;
21168;SDS011;10742;51.816;8.662;2023-07-29T15:18:19;5.30;;;4.85;;
21168;SDS011;10742;51.816;8.662;2023-07-29T15:21:22;4.07;;;3.72;;
21168;SDS011;10742;51.816;8.662;2023-07-29T15:24:25;4.95;;;3.70;;
21168;SDS011;10742;51.816;8.662;2023-07-29T15:27:29;4.63;;;4.05;;
21168;SDS011;10742;51.816;8.662;2023-07-29T15:30:34;4.18;;;3.78;;
21168;SDS011;10742;51.816;8.662;2023-07-29T15:33:38;6.55;;;3.83;;
21168;SDS011;10742;51.816;8.662;2023-07-29T15:36:41;4.40;;;3.92;;
21168;SDS011;10742;51.816;8.662;2023-07-29T15:39:43;4.05;;;3.28;;
21168;SDS011;10742;51.816;8.662;2023-07-29T15:42:46;3.80;;;3.33;;
21168;SDS011;10742;51.816;8.662;2023-07-29T15:45:48;5.53;;;3.00;;
21168;SDS011;10742;51.816;8.662;2023-07-29T15:48:51;4.13;;;3.00;;
21168;SDS011;10742;51.816;8.662;2023-07-29T15:51:53;4.75;;;3.10;;
21168;SDS011;10742;51.816;8.662;2023-07-29T15:54:56;8.35;;;3.15;;
21168;SDS011;10742;51.816;8.662;2023-07-29T15:57:59;3.78;;;2.90;;
21168;SDS011;10742;51.816;8.662;2023-07-29T16:01:01;5.88;;;3.60;;
21168;SDS011;10742;51.816;8.662;2023-07-29T16:04:05;10.43;;;6.78;;
21168;SDS011;10742;51.816;8.662;2023-07-29T16:07:08;79.43;;;26.42;;
21168;SDS011;10742;51.816;8.662;2023-07-29T16:10:10;178.07;;;58.83;;
21168;SDS011;10742;51.816;8.662;2023-07-29T16:13:13;371.17;;;122.43;;
21168;SDS011;10742;51.816;8.662;2023-07-29T16:16:19;955.45;;;276.98;;
21168;SDS011;10742;51.816;8.662;2023-07-29T16:19:23;1255.38;;;311.85;;
21168;SDS011;10742;51.816;8.662;2023-07-29T16:22:28;1999.90;;;605.30;;
21168;SDS011;10742;51.816;8.662;2023-07-29T16:25:31;1999.90;;;647.25;;
21168;SDS011;10742;51.816;8.662;2023-07-29T16:28:33;1999.90;;;644.13;;
21168;SDS011;10742;51.816;8.662;2023-07-29T16:31:36;1999.90;;;761.10;;
21168;SDS011;10742;51.816;8.662;2023-07-29T16:34:39;1999.90;;;991.20;;
21168;SDS011;10742;51.816;8.662;2023-07-29T16:37:42;1999.90;;;999.90;;
21168;SDS011;10742;51.816;8.662;2023-07-29T16:40:44;1999.90;;;957.20;;
21168;SDS011;10742;51.816;8.662;2023-07-29T16:43:54;1999.90;;;659.38;;
21168;SDS011;10742;51.816;8.662;2023-07-29T16:46:57;1999.90;;;684.25;;
21168;SDS011;10742;51.816;8.662;2023-07-29T16:49:59;1999.90;;;819.10;;
21168;SDS011;10742;51.816;8.662;2023-07-29T16:53:09;1999.90;;;846.78;;
21168;SDS011;10742;51.816;8.662;2023-07-29T16:56:30;1999.90;;;767.90;;
21168;SDS011;10742;51.816;8.662;2023-07-29T16:59:53;1999.90;;;647.53;;
21168;SDS011;10742;51.816;8.662;2023-07-29T17:03:14;1999.90;;;601.80;;
21168;SDS011;10742;51.816;8.662;2023-07-29T17:06:38;1999.90;;;633.97;;
21168;SDS011;10742;51.816;8.662;2023-07-29T17:10:00;1999.90;;;609.05;;
21168;SDS011;10742;51.816;8.662;2023-07-29T17:13:22;1999.90;;;516.70;;
21168;SDS011;10742;51.816;8.662;2023-07-29T17:16:43;755.78;;;231.68;;
21168;SDS011;10742;51.816;8.662;2023-07-29T17:19:46;1122.20;;;294.58;;
21168;SDS011;10742;51.816;8.662;2023-07-29T17:22:49;1527.07;;;376.13;;
21168;SDS011;10742;51.816;8.662;2023-07-29T17:25:51;838.25;;;246.35;;
21168;SDS011;10742;51.816;8.662;2023-07-29T17:28:54;1778.03;;;408.60;;
21168;SDS011;10742;51.816;8.662;2023-07-29T17:31:56;1331.88;;;348.73;;
21168;SDS011;10742;51.816;8.662;2023-07-29T17:34:59;1874.65;;;464.88;;
21168;SDS011;10742;51.816;8.662;2023-07-29T17:38:01;1999.90;;;631.55;;
21168;SDS011;10742;51.816;8.662;2023-07-29T17:41:04;1999.90;;;595.55;;
21168;SDS011;10742;51.816;8.662;2023-07-29T17:44:06;1999.90;;;678.58;;
21168;SDS011;10742;51.816;8.662;2023-07-29T17:47:09;1999.90;;;713.70;;
21168;SDS011;10742;51.816;8.662;2023-07-29T17:50:11;1999.90;;;762.17;;